dimanche 7 septembre 2008

La météo du jour (messages aéronautiques)

METAR :
METAR LFBL 070900Z 22012KT 6000 SCT008 BKN012 BKN036 13/11 Q1015 TEMPO 4000 SHRA BKN010=

TAF COURT :
TAF AMD LFBL 070900Z 070918 22010KT 9999 SCT020 SCT030 TEMPO 0918 22015G25KT 4000 SHRA BKN010=

L'évolution de la météo locale conforte l'analyse que nous en avions fait 48 heures plus tôt. Ce n'est pas un temps à mettre un biplan dehors... pas plus, d'ailleurs, qu'un spectateur.

Aucun commentaire: